createdAt,value
2023-03-31T00:08:02.285Z,3.80
2023-03-31T00:18:06.038Z,5.13
2023-03-31T00:28:10.680Z,5.93
2023-03-31T00:38:16.064Z,4.60
2023-03-31T00:48:21.618Z,4.38
2023-03-31T00:58:28.566Z,5.20
2023-03-31T01:08:36.539Z,3.28
2023-03-31T01:18:39.991Z,5.35
2023-03-31T01:28:48.310Z,6.32
2023-03-31T01:39:17.473Z,9.43
2023-03-31T01:49:28.097Z,5.18
2023-03-31T01:59:35.904Z,6.53
2023-03-31T02:09:45.478Z,6.70
2023-03-31T02:19:53.015Z,5.15
2023-03-31T02:30:00.387Z,5.53
2023-03-31T02:40:10.488Z,4.75
2023-03-31T02:50:15.308Z,5.20
2023-03-31T03:00:27.518Z,5.22
2023-03-31T03:10:44.217Z,6.47
2023-03-31T03:20:49.241Z,5.47
2023-03-31T03:30:54.480Z,6.30
2023-03-31T03:40:57.719Z,5.05
2023-03-31T03:51:02.563Z,5.82
2023-03-31T04:01:05.903Z,5.88
2023-03-31T04:11:16.616Z,6.30
2023-03-31T04:21:23.735Z,5.70
2023-03-31T04:31:30.989Z,5.97
2023-03-31T04:41:34.373Z,8.15
2023-03-31T04:51:39.072Z,6.50
2023-03-31T05:01:45.838Z,6.70
2023-03-31T05:11:50.719Z,6.40
2023-03-31T05:21:54.012Z,6.13
2023-03-31T05:31:58.675Z,4.15
2023-03-31T05:42:02.415Z,3.22
2023-03-31T05:52:07.300Z,7.15
2023-03-31T06:02:13.644Z,5.25
2023-03-31T06:12:18.306Z,4.80
2023-03-31T06:22:21.491Z,3.50
2023-03-31T06:32:26.161Z,5.57
2023-03-31T06:42:29.395Z,5.57
2023-03-31T06:52:34.005Z,7.80
2023-03-31T07:02:38.172Z,6.68
2023-03-31T07:12:42.854Z,9.70
2023-03-31T07:22:47.566Z,7.60
2023-03-31T07:32:54.522Z,6.97
2023-03-31T07:42:58.044Z,9.68
2023-03-31T07:53:02.770Z,7.82
2023-03-31T08:03:07.097Z,8.55
2023-03-31T08:13:11.728Z,8.05
2023-03-31T08:23:14.964Z,8.98
2023-03-31T08:33:19.588Z,6.13
2023-03-31T08:43:31.248Z,6.10
2023-03-31T08:53:40.701Z,6.60
2023-03-31T09:03:52.128Z,10.32
2023-03-31T09:14:16.253Z,9.02
2023-03-31T09:24:23.841Z,9.13
2023-03-31T09:34:31.422Z,9.13
2023-03-31T09:44:39.085Z,7.03
2023-03-31T09:54:50.839Z,6.75
2023-03-31T10:04:54.223Z,9.50
2023-03-31T10:15:18.280Z,10.73
2023-03-31T10:25:25.780Z,8.82
2023-03-31T10:35:34.393Z,10.73
2023-03-31T10:45:45.648Z,9.20
2023-03-31T10:56:15.441Z,6.68
2023-03-31T11:06:27.981Z,6.03
2023-03-31T11:16:40.247Z,8.15
2023-03-31T11:26:51.647Z,4.47
2023-03-31T11:37:25.143Z,3.42
2023-03-31T11:47:32.099Z,6.20
2023-03-31T11:57:41.633Z,5.78
2023-03-31T12:07:49.308Z,4.93
2023-03-31T12:18:00.422Z,7.53
2023-03-31T12:28:04.548Z,3.88
2023-03-31T12:38:20.442Z,2.05
2023-03-31T12:49:04.810Z,1.63
2023-03-31T12:59:30.814Z,2.83
2023-03-31T13:09:48.336Z,1.30
2023-03-31T13:19:54.214Z,1.50
2023-03-31T13:29:57.870Z,2.25
2023-03-31T13:40:28.009Z,2.50
2023-03-31T13:50:40.936Z,3.25
2023-03-31T14:00:52.376Z,2.60
2023-03-31T14:10:55.649Z,2.38
2023-03-31T14:21:11.365Z,3.35
2023-03-31T14:31:22.099Z,3.53
2023-03-31T14:41:30.549Z,4.78
2023-03-31T14:51:34.034Z,2.80
2023-03-31T15:01:39.788Z,1.10
2023-03-31T15:11:43.053Z,2.13
2023-03-31T15:21:54.670Z,1.48
2023-03-31T15:31:59.659Z,0.90
2023-03-31T15:42:06.980Z,0.97
2023-03-31T15:52:27.430Z,1.33
2023-03-31T16:02:41.740Z,2.58
2023-03-31T16:12:54.185Z,3.63
2023-03-31T16:23:01.125Z,4.53
2023-03-31T16:33:07.047Z,2.28
2023-03-31T16:43:14.816Z,2.58
2023-03-31T16:53:20.138Z,2.45
2023-03-31T17:03:25.407Z,4.68
2023-03-31T17:13:28.892Z,3.50
2023-03-31T17:23:34.146Z,2.43
2023-03-31T17:33:37.365Z,1.50
2023-03-31T17:43:45.800Z,2.60
2023-03-31T17:53:49.633Z,2.17
2023-03-31T18:03:56.460Z,1.10
2023-03-31T18:14:01.885Z,0.90
2023-03-31T18:24:06.811Z,1.10
2023-03-31T18:34:10.072Z,1.20
2023-03-31T18:44:16.707Z,1.37
2023-03-31T18:54:20.474Z,1.13
2023-03-31T19:04:25.359Z,1.30
2023-03-31T19:14:28.801Z,1.37
2023-03-31T19:24:33.530Z,1.10
2023-03-31T19:34:36.845Z,2.67
2023-03-31T19:44:41.500Z,1.67
2023-03-31T19:54:44.751Z,0.80
2023-03-31T20:04:49.447Z,3.43
2023-03-31T20:14:52.678Z,1.63
2023-03-31T20:24:57.239Z,2.53
2023-03-31T20:35:01.577Z,2.67
2023-03-31T20:45:07.524Z,3.20
2023-03-31T20:55:11.160Z,3.73
2023-03-31T21:05:16.680Z,1.30
2023-03-31T21:15:20.124Z,3.07
2023-03-31T21:25:25.378Z,2.97
2023-03-31T21:35:28.671Z,4.90
2023-03-31T21:45:33.476Z,2.47
2023-03-31T21:55:38.730Z,4.03
2023-03-31T22:05:43.320Z,4.33
2023-03-31T22:15:46.667Z,4.17
2023-03-31T22:25:51.354Z,3.53
2023-03-31T22:35:54.617Z,2.07
2023-03-31T22:46:02.848Z,2.27
2023-03-31T22:56:08.712Z,1.30
2023-03-31T23:06:14.542Z,1.63
2023-03-31T23:16:19.944Z,1.57
2023-03-31T23:26:27.838Z,3.17
2023-03-31T23:36:31.188Z,2.53
2023-03-31T23:46:37.806Z,2.60
2023-03-31T23:56:41.218Z,2.90
